createdAt,value
2018-08-25T00:00:11.450Z,1007.20
2018-08-25T00:01:11.390Z,1007.17
2018-08-25T00:02:11.329Z,1007.10
2018-08-25T00:03:11.274Z,1007.16
2018-08-25T00:04:11.213Z,1007.21
2018-08-25T00:05:11.155Z,1007.17
2018-08-25T00:06:11.096Z,1007.22
2018-08-25T00:07:11.036Z,1007.26
2018-08-25T00:08:10.963Z,1007.26
2018-08-25T00:09:10.913Z,1007.21
2018-08-25T00:10:10.853Z,1007.17
2018-08-25T00:11:10.785Z,1007.18
2018-08-25T00:12:10.721Z,1007.18
2018-08-25T00:13:10.661Z,1007.12
2018-08-25T00:14:10.600Z,1007.12
2018-08-25T00:15:10.550Z,1007.10
2018-08-25T00:16:10.487Z,1007.08
2018-08-25T00:17:10.415Z,1007.06
2018-08-25T00:18:10.357Z,1007.05
2018-08-25T00:19:10.304Z,1007.03
2018-08-25T00:20:10.243Z,1007.02
2018-08-25T00:21:10.179Z,1007.04
2018-08-25T00:22:10.120Z,1007.07
2018-08-25T00:23:10.053Z,1007.04
2018-08-25T00:24:09.999Z,1006.99
2018-08-25T00:25:09.970Z,1007.00
2018-08-25T00:26:09.892Z,1007.02
2018-08-25T00:27:09.820Z,1007.02
2018-08-25T00:28:09.749Z,1007.02
2018-08-25T00:29:09.695Z,1007.05
2018-08-25T00:30:09.628Z,1007.07
2018-08-25T00:31:09.573Z,1007.01
2018-08-25T00:32:09.516Z,1007.06
2018-08-25T00:33:09.459Z,1007.04
2018-08-25T00:34:09.400Z,1007.06
2018-08-25T00:35:09.329Z,1007.05
2018-08-25T00:36:09.264Z,1007.05
2018-08-25T00:37:09.202Z,1007.05
2018-08-25T00:38:09.144Z,1007.07
2018-08-25T00:39:09.088Z,1007.10
2018-08-25T00:40:09.026Z,1007.09
2018-08-25T00:41:08.970Z,1007.09
2018-08-25T00:42:08.906Z,1007.04
2018-08-25T00:43:08.847Z,1007.08
2018-08-25T00:44:08.790Z,1007.11
2018-08-25T00:45:08.729Z,1007.08
2018-08-25T00:46:08.663Z,1007.10
2018-08-25T00:47:08.598Z,1007.12
2018-08-25T00:48:08.540Z,1007.15
2018-08-25T00:49:08.476Z,1007.13
2018-08-25T00:50:08.414Z,1007.18
2018-08-25T00:51:08.369Z,1007.17
2018-08-25T00:52:08.302Z,1007.20
2018-08-25T00:53:08.244Z,1007.21
2018-08-25T00:54:08.178Z,1007.22
2018-08-25T00:55:08.109Z,1007.24
2018-08-25T00:56:08.064Z,1007.27
2018-08-25T00:57:07.995Z,1007.30
2018-08-25T00:58:07.935Z,1007.29
2018-08-25T00:59:07.872Z,1007.29
2018-08-25T01:00:07.805Z,1007.27
2018-08-25T01:01:07.743Z,1007.21
2018-08-25T01:02:07.689Z,1007.23
2018-08-25T01:03:07.629Z,1007.25
2018-08-25T01:04:07.574Z,1007.24
2018-08-25T01:05:07.512Z,1007.27
2018-08-25T01:06:07.444Z,1007.23
2018-08-25T01:07:07.379Z,1007.21
2018-08-25T01:08:07.318Z,1007.23
2018-08-25T01:09:07.256Z,1007.11
2018-08-25T01:10:07.203Z,1007.09
2018-08-25T01:11:07.145Z,1007.11
2018-08-25T01:12:07.088Z,1007.09
2018-08-25T01:13:07.029Z,1007.10
2018-08-25T01:14:06.951Z,1007.13
2018-08-25T01:15:06.898Z,1007.16
2018-08-25T01:16:06.834Z,1007.13
2018-08-25T01:17:06.775Z,1007.14
2018-08-25T01:18:06.713Z,1007.16
2018-08-25T01:19:06.646Z,1007.23
2018-08-25T01:20:06.583Z,1007.22
2018-08-25T01:21:06.525Z,1007.21
2018-08-25T01:22:06.463Z,1007.23
2018-08-25T01:23:06.411Z,1007.22
2018-08-25T01:24:06.347Z,1007.23
2018-08-25T01:25:06.300Z,1007.29
2018-08-25T01:26:06.223Z,1007.28
2018-08-25T01:27:06.160Z,1007.25
2018-08-25T01:28:06.113Z,1007.27
2018-08-25T01:29:06.041Z,1007.21
2018-08-25T01:30:05.984Z,1007.22
2018-08-25T01:31:05.913Z,1007.21
2018-08-25T01:32:05.854Z,1007.18
2018-08-25T01:33:05.793Z,1007.20
2018-08-25T01:34:05.729Z,1007.19
2018-08-25T01:35:05.676Z,1007.26
2018-08-25T01:36:05.611Z,1007.25
2018-08-25T01:37:05.554Z,1007.24
2018-08-25T01:38:05.492Z,1007.18
2018-08-25T01:39:05.423Z,1007.24
2018-08-25T01:40:05.362Z,1007.18
2018-08-25T01:41:05.301Z,1007.16
2018-08-25T01:42:05.240Z,1007.19
2018-08-25T01:43:05.192Z,1007.21
2018-08-25T01:44:05.138Z,1007.20
2018-08-25T01:45:05.056Z,1007.17
2018-08-25T01:46:04.994Z,1007.19
2018-08-25T01:47:04.941Z,1007.19
2018-08-25T01:48:04.878Z,1007.22
2018-08-25T01:49:04.815Z,1007.24
2018-08-25T01:50:04.756Z,1007.24
2018-08-25T01:51:04.688Z,1007.24
2018-08-25T01:52:04.629Z,1007.21
2018-08-25T01:53:04.565Z,1007.19
2018-08-25T01:54:04.504Z,1007.15
2018-08-25T01:55:04.449Z,1007.12
2018-08-25T01:56:04.385Z,1007.12
2018-08-25T01:57:04.328Z,1007.09
2018-08-25T01:58:04.267Z,1007.04
2018-08-25T01:59:04.198Z,1007.03
2018-08-25T02:00:04.134Z,1007.04
2018-08-25T02:01:04.081Z,1007.06
2018-08-25T02:02:04.021Z,1007.06
2018-08-25T02:03:03.953Z,1007.05
2018-08-25T02:04:03.890Z,1007.06
2018-08-25T02:05:03.829Z,1007.00
2018-08-25T02:06:03.769Z,1006.99
2018-08-25T02:07:03.714Z,1006.95
2018-08-25T02:08:03.651Z,1006.94
2018-08-25T02:09:03.589Z,1006.96
2018-08-25T02:10:03.527Z,1006.94
2018-08-25T02:11:03.462Z,1006.97
2018-08-25T02:12:03.398Z,1007.01
2018-08-25T02:13:03.338Z,1007.03
2018-08-25T02:14:03.279Z,1006.99
2018-08-25T02:15:03.237Z,1007.03
2018-08-25T02:16:03.160Z,1007.01
2018-08-25T02:17:03.094Z,1007.02
2018-08-25T02:18:03.031Z,1006.96
2018-08-25T02:19:02.975Z,1006.96
2018-08-25T02:20:02.914Z,1006.98
2018-08-25T02:21:02.861Z,1006.95
2018-08-25T02:22:02.791Z,1006.94
2018-08-25T02:23:02.729Z,1006.94
2018-08-25T02:24:02.661Z,1006.91
2018-08-25T02:25:02.600Z,1006.89
2018-08-25T02:26:02.538Z,1006.91
2018-08-25T02:27:02.485Z,1006.89
2018-08-25T02:28:02.450Z,1006.90
2018-08-25T02:29:02.364Z,1006.88
2018-08-25T02:30:02.299Z,1006.93
2018-08-25T02:31:02.252Z,1006.88
2018-08-25T02:32:02.170Z,1006.87
2018-08-25T02:33:02.115Z,1006.81
2018-08-25T02:34:02.053Z,1006.81
2018-08-25T02:35:01.992Z,1006.72
2018-08-25T02:36:01.923Z,1006.72
2018-08-25T02:37:01.863Z,1006.73
2018-08-25T02:38:01.804Z,1006.72
2018-08-25T02:39:01.747Z,1006.76
2018-08-25T02:40:01.689Z,1006.76
2018-08-25T02:41:01.623Z,1006.78
2018-08-25T02:42:01.562Z,1006.79
2018-08-25T02:43:01.494Z,1006.79
2018-08-25T02:44:01.432Z,1006.80
2018-08-25T02:45:01.370Z,1006.81
2018-08-25T02:46:01.312Z,1006.79
2018-08-25T02:47:01.253Z,1006.82
2018-08-25T02:48:01.193Z,1006.78
2018-08-25T02:49:01.128Z,1006.78
2018-08-25T02:50:01.063Z,1006.85
2018-08-25T02:51:01.010Z,1006.87
2018-08-25T02:52:00.948Z,1006.86
2018-08-25T02:53:00.886Z,1006.91
2018-08-25T02:54:00.824Z,1006.85
2018-08-25T02:55:00.764Z,1006.85
2018-08-25T02:56:00.695Z,1006.83
2018-08-25T02:57:00.635Z,1006.83
2018-08-25T02:58:00.572Z,1006.82
2018-08-25T02:59:00.517Z,1006.83
2018-08-25T03:00:00.462Z,1006.82
2018-08-25T03:01:00.411Z,1006.84
2018-08-25T03:02:00.334Z,1006.85
2018-08-25T03:03:00.266Z,1006.86
2018-08-25T03:04:00.203Z,1006.85
2018-08-25T03:05:00.148Z,1006.81
2018-08-25T03:06:00.088Z,1006.80
2018-08-25T03:07:00.022Z,1006.79
2018-08-25T03:07:59.960Z,1006.77
2018-08-25T03:08:59.901Z,1006.74
2018-08-25T03:09:59.837Z,1006.72
2018-08-25T03:10:59.783Z,1006.69
2018-08-25T03:11:59.721Z,1006.69
2018-08-25T03:12:59.656Z,1006.66
2018-08-25T03:13:59.597Z,1006.67
2018-08-25T03:14:59.534Z,1006.65
2018-08-25T03:15:59.468Z,1006.62
2018-08-25T03:16:59.421Z,1006.61
2018-08-25T03:17:59.348Z,1006.61
2018-08-25T03:18:59.290Z,1006.58
2018-08-25T03:19:59.229Z,1006.52
2018-08-25T03:20:59.160Z,1006.52
2018-08-25T03:21:59.099Z,1006.54
2018-08-25T03:22:59.042Z,1006.47
2018-08-25T03:23:58.981Z,1006.43
2018-08-25T03:24:58.922Z,1006.42
2018-08-25T03:25:58.860Z,1006.40
2018-08-25T03:26:58.791Z,1006.40
2018-08-25T03:27:58.728Z,1006.44
2018-08-25T03:28:58.667Z,1006.49
2018-08-25T03:29:58.610Z,1006.47
2018-08-25T03:30:58.556Z,1006.51
2018-08-25T03:31:58.492Z,1006.50
2018-08-25T03:32:58.440Z,1006.49
2018-08-25T03:33:58.367Z,1006.50
2018-08-25T03:34:58.299Z,1006.46
2018-08-25T03:35:58.239Z,1006.54
2018-08-25T03:36:58.183Z,1006.57
2018-08-25T03:37:58.121Z,1006.55
2018-08-25T03:38:58.081Z,1006.57
2018-08-25T03:39:57.992Z,1006.56
2018-08-25T03:40:57.930Z,1006.59
2018-08-25T03:41:57.869Z,1006.60
2018-08-25T03:42:57.813Z,1006.62
2018-08-25T03:43:57.750Z,1006.62
2018-08-25T03:44:57.689Z,1006.65
2018-08-25T03:45:57.630Z,1006.63
2018-08-25T03:46:57.564Z,1006.59
2018-08-25T03:47:57.500Z,1006.60
2018-08-25T03:48:57.447Z,1006.57
2018-08-25T03:49:57.376Z,1006.56
2018-08-25T03:50:57.326Z,1006.59
2018-08-25T03:51:57.257Z,1006.57
2018-08-25T03:52:57.193Z,1006.60
2018-08-25T03:53:57.130Z,1006.53
2018-08-25T03:54:57.077Z,1006.46
2018-08-25T03:55:57.013Z,1006.45
2018-08-25T03:56:56.952Z,1006.47
2018-08-25T03:57:56.897Z,1006.46
2018-08-25T03:58:56.822Z,1006.40
2018-08-25T03:59:56.770Z,1006.40
2018-08-25T04:00:56.707Z,1006.40
2018-08-25T04:01:56.637Z,1006.40
2018-08-25T04:02:56.587Z,1006.35
2018-08-25T04:03:56.522Z,1006.34
2018-08-25T04:04:56.467Z,1006.43
2018-08-25T04:05:56.399Z,1006.36
2018-08-25T04:06:56.337Z,1006.37
2018-08-25T04:07:56.269Z,1006.31
2018-08-25T04:08:56.219Z,1006.29
2018-08-25T04:09:56.151Z,1006.32
2018-08-25T04:10:56.090Z,1006.32
2018-08-25T04:11:56.023Z,1006.31
2018-08-25T04:12:55.961Z,1006.33
2018-08-25T04:13:55.902Z,1006.39
2018-08-25T04:14:55.952Z,1006.42
2018-08-25T04:15:55.782Z,1006.44
2018-08-25T04:16:55.727Z,1006.43
2018-08-25T04:17:55.661Z,1006.48
2018-08-25T04:18:55.592Z,1006.46
2018-08-25T04:19:55.543Z,1006.42
2018-08-25T04:20:55.471Z,1006.43
2018-08-25T04:21:55.410Z,1006.41
2018-08-25T04:22:55.352Z,1006.35
2018-08-25T04:23:55.291Z,1006.40
2018-08-25T04:25:09.023Z,1006.40
2018-08-25T04:26:48.545Z,1006.34
2018-08-25T04:27:48.440Z,1006.33
2018-08-25T04:29:42.968Z,1006.34
2018-08-25T04:30:42.873Z,1006.39
2018-08-25T04:31:42.806Z,1006.36
2018-08-25T04:32:42.742Z,1006.35
2018-08-25T04:33:42.681Z,1006.32
2018-08-25T04:34:42.627Z,1006.38
2018-08-25T04:35:42.568Z,1006.37
2018-08-25T04:36:42.501Z,1006.38
2018-08-25T04:37:42.440Z,1006.38
2018-08-25T04:38:42.374Z,1006.36
2018-08-25T04:39:42.314Z,1006.33
2018-08-25T04:40:42.258Z,1006.32
2018-08-25T04:41:42.197Z,1006.33
2018-08-25T04:42:42.127Z,1006.35
2018-08-25T04:43:42.065Z,1006.31
2018-08-25T04:44:42.004Z,1006.31
2018-08-25T04:45:41.946Z,1006.29
2018-08-25T04:46:41.886Z,1006.29
2018-08-25T04:47:41.827Z,1006.30
2018-08-25T04:48:41.768Z,1006.28
2018-08-25T04:49:41.704Z,1006.30
2018-08-25T04:50:41.645Z,1006.35
2018-08-25T04:51:41.572Z,1006.34
2018-08-25T04:52:41.514Z,1006.34
2018-08-25T04:53:41.451Z,1006.31
2018-08-25T04:54:41.395Z,1006.35
2018-08-25T04:55:41.331Z,1006.36
2018-08-25T04:56:41.264Z,1006.39
2018-08-25T04:57:41.204Z,1006.37
2018-08-25T04:58:41.150Z,1006.41
2018-08-25T04:59:41.088Z,1006.35
2018-08-25T05:00:41.026Z,1006.35
2018-08-25T05:01:40.978Z,1006.39
2018-08-25T05:02:40.898Z,1006.37
2018-08-25T05:03:40.837Z,1006.37
2018-08-25T05:04:40.777Z,1006.40
2018-08-25T05:05:40.728Z,1006.39
2018-08-25T05:06:40.668Z,1006.43
2018-08-25T05:07:40.632Z,1006.41
2018-08-25T05:08:40.534Z,1006.44
2018-08-25T05:09:40.474Z,1006.42
2018-08-25T05:10:40.408Z,1006.44
2018-08-25T05:11:40.347Z,1006.43
2018-08-25T05:12:40.290Z,1006.44
2018-08-25T05:13:40.236Z,1006.41
2018-08-25T05:14:40.163Z,1006.45
2018-08-25T05:15:40.104Z,1006.44
2018-08-25T05:16:40.044Z,1006.51
2018-08-25T05:17:39.981Z,1006.46
2018-08-25T05:18:39.924Z,1006.46
2018-08-25T05:19:39.859Z,1006.46
2018-08-25T05:20:39.799Z,1006.46
2018-08-25T05:21:39.744Z,1006.48
2018-08-25T05:22:39.672Z,1006.48
2018-08-25T05:23:39.615Z,1006.52
2018-08-25T05:24:39.543Z,1006.54
2018-08-25T05:25:39.483Z,1006.52
2018-08-25T05:26:39.431Z,1006.53
2018-08-25T05:27:39.368Z,1006.55
2018-08-25T05:28:39.300Z,1006.58
2018-08-25T05:29:39.241Z,1006.57
2018-08-25T05:30:39.180Z,1006.56
2018-08-25T05:31:39.120Z,1006.57
2018-08-25T05:32:39.069Z,1006.58
2018-08-25T05:33:39.004Z,1006.54
2018-08-25T05:34:38.931Z,1006.57
2018-08-25T05:35:38.869Z,1006.56
2018-08-25T05:36:38.808Z,1006.52
2018-08-25T05:37:38.748Z,1006.50
2018-08-25T05:38:38.692Z,1006.50
2018-08-25T05:39:38.630Z,1006.50
2018-08-25T05:40:38.570Z,1006.52
2018-08-25T05:41:38.513Z,1006.51
2018-08-25T05:42:38.439Z,1006.52
2018-08-25T05:43:38.381Z,1006.52
2018-08-25T05:44:38.336Z,1006.56
2018-08-25T05:45:38.278Z,1006.51
2018-08-25T05:46:38.196Z,1006.52
2018-08-25T05:47:38.133Z,1006.47
2018-08-25T05:48:38.074Z,1006.50
2018-08-25T05:49:38.017Z,1006.44
2018-08-25T05:50:37.962Z,1006.47
2018-08-25T05:51:37.898Z,1006.47
2018-08-25T05:52:37.849Z,1006.49
2018-08-25T05:53:37.791Z,1006.48
2018-08-25T05:54:37.705Z,1006.49
2018-08-25T05:55:37.645Z,1006.51
2018-08-25T05:56:45.238Z,1006.49
2018-08-25T05:58:33.490Z,1006.50
2018-08-25T05:59:31.799Z,1006.53
2018-08-25T06:00:39.384Z,1006.51
2018-08-25T06:02:26.036Z,1006.55
2018-08-25T06:03:25.940Z,1006.56
2018-08-25T06:05:19.247Z,1006.57
2018-08-25T06:06:19.159Z,1006.54
2018-08-25T06:08:13.478Z,1006.58
2018-08-25T06:09:13.365Z,1006.57
2018-08-25T06:10:13.308Z,1006.58
2018-08-25T06:11:13.248Z,1006.60
2018-08-25T06:12:13.187Z,1006.55
2018-08-25T06:13:13.130Z,1006.55
2018-08-25T06:14:20.699Z,1006.53
2018-08-25T06:16:06.366Z,1006.52
2018-08-25T06:17:06.281Z,1006.50
2018-08-25T06:19:00.577Z,1006.56
2018-08-25T06:20:00.482Z,1006.52
2018-08-25T06:21:54.769Z,1006.53
2018-08-25T06:22:54.669Z,1006.50
2018-08-25T06:24:48.969Z,1006.51
2018-08-25T06:25:48.893Z,1006.50
2018-08-25T06:26:48.818Z,1006.53
2018-08-25T06:27:48.777Z,1006.57
2018-08-25T06:28:48.705Z,1006.59
2018-08-25T06:29:48.735Z,1006.54
2018-08-25T06:30:48.584Z,1006.59
2018-08-25T06:31:48.515Z,1006.57
2018-08-25T06:32:48.462Z,1006.51
2018-08-25T06:33:48.407Z,1006.55
2018-08-25T06:34:56.584Z,1006.59
2018-08-25T06:36:52.979Z,1006.68
2018-08-25T06:37:45.054Z,1006.75
2018-08-25T06:39:48.194Z,1006.74
2018-08-25T06:40:39.444Z,1006.77
2018-08-25T06:42:33.772Z,1006.78
2018-08-25T06:43:33.713Z,1006.77
2018-08-25T06:44:33.620Z,1006.84
2018-08-25T06:45:33.545Z,1006.83
2018-08-25T06:46:33.499Z,1006.82
2018-08-25T06:47:33.429Z,1006.81
2018-08-25T06:48:33.356Z,1006.82
2018-08-25T06:49:33.301Z,1006.84
2018-08-25T06:50:33.246Z,1006.84
2018-08-25T06:51:33.182Z,1006.87
2018-08-25T06:52:33.116Z,1006.83
2018-08-25T06:53:33.055Z,1006.85
2018-08-25T06:54:33.009Z,1006.86
2018-08-25T06:55:32.938Z,1006.88
2018-08-25T06:56:32.882Z,1006.94
2018-08-25T06:57:32.825Z,1006.90
2018-08-25T06:58:32.763Z,1006.86
2018-08-25T06:59:32.739Z,1006.88
2018-08-25T07:00:32.636Z,1006.83
2018-08-25T07:01:32.575Z,1006.83
2018-08-25T07:02:32.516Z,1006.76
2018-08-25T07:03:32.456Z,1006.81
2018-08-25T07:04:32.407Z,1006.77
2018-08-25T07:05:32.343Z,1006.81
2018-08-25T07:06:32.282Z,1006.78
2018-08-25T07:07:32.219Z,1006.78
2018-08-25T07:08:32.172Z,1006.77
2018-08-25T07:09:32.102Z,1006.78
2018-08-25T07:10:32.047Z,1006.73
2018-08-25T07:11:31.994Z,1006.66
2018-08-25T07:12:31.918Z,1006.68
2018-08-25T07:13:31.856Z,1006.68
2018-08-25T07:14:31.801Z,1006.61
2018-08-25T07:15:31.739Z,1006.61
2018-08-25T07:16:31.683Z,1006.59
2018-08-25T07:17:31.627Z,1006.55
2018-08-25T07:18:31.572Z,1006.56
2018-08-25T07:19:31.506Z,1006.58
2018-08-25T07:20:31.451Z,1006.58
2018-08-25T07:21:31.378Z,1006.59
2018-08-25T07:22:31.328Z,1006.59
2018-08-25T07:23:31.270Z,1006.55
2018-08-25T07:24:31.202Z,1006.58
2018-08-25T07:25:31.139Z,1006.58
2018-08-25T07:26:31.086Z,1006.57
2018-08-25T07:27:31.038Z,1006.63
2018-08-25T07:28:30.967Z,1006.58
2018-08-25T07:29:30.907Z,1006.59
2018-08-25T07:30:30.849Z,1006.60
2018-08-25T07:31:30.794Z,1006.64
2018-08-25T07:32:30.720Z,1006.68
2018-08-25T07:33:30.658Z,1006.68
2018-08-25T07:34:30.599Z,1006.66
2018-08-25T07:35:30.537Z,1006.65
2018-08-25T07:36:30.485Z,1006.63
2018-08-25T07:37:30.422Z,1006.64
2018-08-25T07:38:30.356Z,1006.65
2018-08-25T07:39:30.294Z,1006.67
2018-08-25T07:40:30.244Z,1006.58
2018-08-25T07:41:30.182Z,1006.57
2018-08-25T07:42:30.129Z,1006.59
2018-08-25T07:43:30.076Z,1006.56
2018-08-25T07:44:29.995Z,1006.60
2018-08-25T07:45:29.935Z,1006.59
2018-08-25T07:46:29.875Z,1006.60
2018-08-25T07:47:29.813Z,1006.62
2018-08-25T07:48:29.802Z,1006.60
2018-08-25T07:49:29.736Z,1006.57
2018-08-25T07:50:29.642Z,1006.60
2018-08-25T07:51:29.579Z,1006.52
2018-08-25T07:52:29.516Z,1006.57
2018-08-25T07:53:29.461Z,1006.53
2018-08-25T07:54:29.423Z,1006.52
2018-08-25T07:55:29.360Z,1006.55
2018-08-25T07:56:30.827Z,1006.54
2018-08-25T07:57:29.216Z,1006.59
2018-08-25T07:58:29.214Z,1006.58
2018-08-25T07:59:29.110Z,1006.52
2018-08-25T08:00:29.040Z,1006.50
2018-08-25T08:01:28.981Z,1006.50
2018-08-25T08:02:28.921Z,1006.51
2018-08-25T08:03:28.862Z,1006.54
2018-08-25T08:04:28.796Z,1006.53
2018-08-25T08:05:28.790Z,1006.56
2018-08-25T08:06:28.681Z,1006.52
2018-08-25T08:07:28.614Z,1006.53
2018-08-25T08:08:28.583Z,1006.57
2018-08-25T08:09:28.503Z,1006.57
2018-08-25T08:10:28.438Z,1006.61
2018-08-25T08:11:28.376Z,1006.57
2018-08-25T08:12:28.329Z,1006.52
2018-08-25T08:13:28.263Z,1006.59
2018-08-25T08:14:28.216Z,1006.61
2018-08-25T08:15:28.144Z,1006.57
2018-08-25T08:16:28.080Z,1006.59
2018-08-25T08:17:28.019Z,1006.59
2018-08-25T08:18:27.966Z,1006.60
2018-08-25T08:19:27.897Z,1006.53
2018-08-25T08:20:27.846Z,1006.52
2018-08-25T08:21:27.784Z,1006.49
2018-08-25T08:22:27.728Z,1006.45
2018-08-25T08:23:27.666Z,1006.46
2018-08-25T08:24:27.600Z,1006.48
2018-08-25T08:25:28.341Z,1006.50
2018-08-25T08:26:27.488Z,1006.53
2018-08-25T08:27:27.426Z,1006.53
2018-08-25T08:28:27.363Z,1006.53
2018-08-25T08:29:27.303Z,1006.53
2018-08-25T08:30:27.257Z,1006.53
2018-08-25T08:31:27.183Z,1006.51
2018-08-25T08:32:27.141Z,1006.53
2018-08-25T08:33:27.073Z,1006.53
2018-08-25T08:34:27.015Z,1006.51
2018-08-25T08:35:26.957Z,1006.47
2018-08-25T08:36:26.885Z,1006.47
2018-08-25T08:37:26.830Z,1006.51
2018-08-25T08:38:26.773Z,1006.47
2018-08-25T08:39:26.734Z,1006.53
2018-08-25T08:40:26.659Z,1006.49
2018-08-25T08:41:26.611Z,1006.53
2018-08-25T08:42:26.654Z,1006.54
2018-08-25T08:43:26.472Z,1006.51
2018-08-25T08:44:26.419Z,1006.56
2018-08-25T08:45:26.424Z,1006.52
2018-08-25T08:46:26.301Z,1006.58
2018-08-25T08:47:26.375Z,1006.55
2018-08-25T08:48:26.176Z,1006.57
2018-08-25T08:49:26.119Z,1006.48
2018-08-25T08:50:26.076Z,1006.50
2018-08-25T08:51:26.006Z,1006.46
2018-08-25T08:52:25.947Z,1006.41
2018-08-25T08:53:25.887Z,1006.42
2018-08-25T08:54:25.897Z,1006.45
2018-08-25T08:55:25.772Z,1006.41
2018-08-25T08:56:25.707Z,1006.42
2018-08-25T08:57:25.651Z,1006.37
2018-08-25T08:58:25.704Z,1006.38
2018-08-25T08:59:25.537Z,1006.35
2018-08-25T09:00:25.468Z,1006.33
2018-08-25T09:01:25.416Z,1006.33
2018-08-25T09:02:25.352Z,1006.29
2018-08-25T09:03:25.316Z,1006.32
2018-08-25T09:04:25.237Z,1006.25
2018-08-25T09:05:25.180Z,1006.29
2018-08-25T09:06:25.118Z,1006.30
2018-08-25T09:07:25.052Z,1006.25
2018-08-25T09:08:25.003Z,1006.25
2018-08-25T09:09:24.943Z,1006.21
2018-08-25T09:10:24.887Z,1006.24
2018-08-25T09:11:24.849Z,1006.19
2018-08-25T09:12:24.760Z,1006.16
2018-08-25T09:13:24.702Z,1006.19
2018-08-25T09:14:24.653Z,1006.16
2018-08-25T09:15:24.595Z,1006.18
2018-08-25T09:16:24.523Z,1006.19
2018-08-25T09:17:24.464Z,1006.16
2018-08-25T09:18:32.361Z,1006.16
2018-08-25T09:19:24.370Z,1006.17
2018-08-25T09:20:24.293Z,1006.15
2018-08-25T09:21:24.234Z,1006.18
2018-08-25T09:22:25.861Z,1006.13
2018-08-25T09:23:24.118Z,1006.10
2018-08-25T09:24:24.050Z,1006.12
2018-08-25T09:25:23.990Z,1006.02
2018-08-25T09:26:23.936Z,1005.93
2018-08-25T09:27:25.943Z,1005.93
2018-08-25T09:28:23.882Z,1005.86
2018-08-25T09:29:23.763Z,1005.86
2018-08-25T09:30:23.701Z,1005.80
2018-08-25T09:31:23.642Z,1005.82
2018-08-25T09:32:23.588Z,1005.81
2018-08-25T09:33:23.693Z,1005.82
2018-08-25T09:34:23.470Z,1005.84
2018-08-25T09:35:23.413Z,1005.81
2018-08-25T09:36:23.468Z,1005.78
2018-08-25T09:37:23.287Z,1005.85
2018-08-25T09:38:23.229Z,1005.79
2018-08-25T09:39:23.174Z,1005.86
2018-08-25T09:40:23.121Z,1005.95
2018-08-25T09:41:23.063Z,1006.02
2018-08-25T09:42:22.998Z,1006.07
2018-08-25T09:43:22.940Z,1006.03
2018-08-25T09:44:22.874Z,1006.00
2018-08-25T09:45:22.814Z,1005.99
2018-08-25T09:46:22.764Z,1006.00
2018-08-25T09:47:22.703Z,1005.98
2018-08-25T09:48:22.637Z,1005.92
2018-08-25T09:49:22.578Z,1006.06
2018-08-25T09:50:22.525Z,1006.02
2018-08-25T09:51:22.461Z,1006.02
2018-08-25T09:52:22.454Z,1006.01
2018-08-25T09:53:22.420Z,1006.04
2018-08-25T09:54:22.288Z,1005.96
2018-08-25T09:55:22.229Z,1005.90
2018-08-25T09:56:22.164Z,1005.94
2018-08-25T09:57:22.106Z,1005.83
2018-08-25T09:58:22.045Z,1005.80
2018-08-25T09:59:21.987Z,1005.79
2018-08-25T10:00:21.950Z,1005.77
2018-08-25T10:01:21.885Z,1005.76
2018-08-25T10:02:21.844Z,1005.77
2018-08-25T10:03:21.752Z,1005.83
2018-08-25T10:04:21.700Z,1005.77
2018-08-25T10:05:21.749Z,1005.79
2018-08-25T10:06:21.585Z,1005.77
2018-08-25T10:07:21.529Z,1005.76
2018-08-25T10:08:21.473Z,1005.75
2018-08-25T10:09:21.401Z,1005.75
2018-08-25T10:10:21.343Z,1005.68
2018-08-25T10:11:21.284Z,1005.65
2018-08-25T10:12:21.233Z,1005.61
2018-08-25T10:13:22.875Z,1005.57
2018-08-25T10:14:21.115Z,1005.59
2018-08-25T10:15:21.061Z,1005.58
2018-08-25T10:16:21.040Z,1005.65
2018-08-25T10:17:20.940Z,1005.68
2018-08-25T10:18:20.889Z,1005.68
2018-08-25T10:19:20.826Z,1005.65
2018-08-25T10:20:20.763Z,1005.63
2018-08-25T10:21:20.707Z,1005.67
2018-08-25T10:22:20.651Z,1005.67
2018-08-25T10:23:20.658Z,1005.64
2018-08-25T10:24:20.529Z,1005.68
2018-08-25T10:25:20.475Z,1005.63
2018-08-25T10:26:20.416Z,1005.64
2018-08-25T10:27:21.898Z,1005.66
2018-08-25T10:28:20.302Z,1005.66
2018-08-25T10:29:20.258Z,1005.70
2018-08-25T10:30:20.181Z,1005.78
2018-08-25T10:31:20.115Z,1005.81
2018-08-25T10:32:20.061Z,1005.71
2018-08-25T10:33:20.003Z,1005.67
2018-08-25T10:34:19.938Z,1005.67
2018-08-25T10:35:19.884Z,1005.67
2018-08-25T10:36:19.830Z,1005.55
2018-08-25T10:37:19.774Z,1005.49
2018-08-25T10:38:19.722Z,1005.44
2018-08-25T10:39:19.653Z,1005.34
2018-08-25T10:40:19.593Z,1005.37
2018-08-25T10:41:19.532Z,1005.31
2018-08-25T10:42:19.507Z,1005.39
2018-08-25T10:43:19.417Z,1005.40
2018-08-25T10:44:19.365Z,1005.43
2018-08-25T10:45:19.309Z,1005.48
2018-08-25T10:46:19.247Z,1005.50
2018-08-25T10:47:19.188Z,1005.43
2018-08-25T10:48:19.123Z,1005.48
2018-08-25T10:49:19.065Z,1005.43
2018-08-25T10:50:19.013Z,1005.47
2018-08-25T10:51:18.953Z,1005.48
2018-08-25T10:52:18.889Z,1005.56
2018-08-25T10:53:18.848Z,1005.52
2018-08-25T10:54:18.773Z,1005.51
2018-08-25T10:55:18.713Z,1005.58
2018-08-25T10:56:18.662Z,1005.61
2018-08-25T10:57:18.609Z,1005.72
2018-08-25T10:58:18.554Z,1005.66
2018-08-25T10:59:18.485Z,1005.76
2018-08-25T11:00:18.507Z,1005.75
2018-08-25T11:01:18.409Z,1005.77
2018-08-25T11:02:18.305Z,1005.78
2018-08-25T11:03:18.245Z,1005.78
2018-08-25T11:04:18.196Z,1005.68
2018-08-25T11:05:18.137Z,1005.52
2018-08-25T11:06:18.071Z,1005.45
2018-08-25T11:07:19.887Z,1005.27
2018-08-25T11:08:17.963Z,1005.39
2018-08-25T11:09:17.902Z,1005.29
2018-08-25T11:10:17.847Z,1005.21
2018-08-25T11:11:17.787Z,1005.25
2018-08-25T11:12:17.720Z,1005.34
2018-08-25T11:13:17.666Z,1005.47
2018-08-25T11:14:17.611Z,1005.59
2018-08-25T11:15:17.549Z,1005.58
2018-08-25T11:16:17.532Z,1005.70
2018-08-25T11:17:17.440Z,1005.69
2018-08-25T11:18:17.381Z,1005.73
2018-08-25T11:19:17.326Z,1005.64
2018-08-25T11:20:17.259Z,1005.73
2018-08-25T11:21:17.203Z,1005.75
2018-08-25T11:22:17.151Z,1005.69
2018-08-25T11:23:17.095Z,1005.51
2018-08-25T11:24:17.026Z,1005.33
2018-08-25T11:25:17.008Z,1005.29
2018-08-25T11:26:16.913Z,1005.27
2018-08-25T11:27:16.934Z,1005.28
2018-08-25T11:28:16.844Z,1005.28
2018-08-25T11:29:16.782Z,1005.21
2018-08-25T11:30:16.697Z,1005.16
2018-08-25T11:31:16.631Z,1005.07
2018-08-25T11:32:16.664Z,1005.04
2018-08-25T11:33:16.513Z,1005.08
2018-08-25T11:34:16.458Z,1005.04
2018-08-25T11:35:16.406Z,1005.03
2018-08-25T11:36:16.343Z,1005.07
2018-08-25T11:37:16.333Z,1005.00
2018-08-25T11:38:16.223Z,1005.13
2018-08-25T11:39:16.171Z,1005.20
2018-08-25T11:40:16.112Z,1005.29
2018-08-25T11:41:16.054Z,1005.42
2018-08-25T11:42:16.010Z,1005.56
2018-08-25T11:43:15.941Z,1005.75
2018-08-25T11:44:15.904Z,1005.93
2018-08-25T11:45:15.817Z,1005.94
2018-08-25T11:46:15.767Z,1005.79
2018-08-25T11:47:15.704Z,1005.85
2018-08-25T11:48:15.653Z,1005.78
2018-08-25T11:49:15.592Z,1005.74
2018-08-25T11:50:15.552Z,1005.89
2018-08-25T11:51:15.502Z,1006.02
2018-08-25T11:52:17.465Z,1006.16
2018-08-25T11:53:15.366Z,1006.23
2018-08-25T11:54:15.349Z,1006.42
2018-08-25T11:55:15.248Z,1006.20
2018-08-25T12:01:16.192Z,1005.51
2018-08-25T12:02:16.124Z,1005.41
2018-08-25T12:04:09.442Z,1005.36
2018-08-25T12:05:09.338Z,1005.35
2018-08-25T12:07:02.650Z,1005.15
2018-08-25T12:08:02.585Z,1005.02
2018-08-25T12:09:57.877Z,1005.04
2018-08-25T12:10:57.782Z,1004.93
2018-08-25T12:12:51.112Z,1004.93
2018-08-25T12:13:51.017Z,1004.86
2018-08-25T12:15:45.327Z,1004.89
2018-08-25T12:16:45.222Z,1004.93
2018-08-25T12:18:39.534Z,1004.85
2018-08-25T12:19:39.445Z,1004.73
2018-08-25T12:20:39.403Z,1004.79
2018-08-25T12:21:39.333Z,1004.86
2018-08-25T12:22:39.281Z,1004.87
2018-08-25T12:23:39.220Z,1004.94
2018-08-25T12:24:39.154Z,1004.94
2018-08-25T12:25:39.095Z,1004.99
2018-08-25T12:26:39.037Z,1005.10